Time;durP1;ratioP1;P1;durP2;ratioP2;P2;SDS_P1;SDS_P2;PMS_P1;PMS_P2;Temp;Humidity;BMP_temperature;BMP_pressure;BME280_temperature;BME280_humidity;BME280_pressure;Samples;Min_cycle;Max_cycle;Signal;HPM_P1;HPM_P2
2022/08/14 00:00:41;;;;;;;3.00;2.40;;;21.10;81.40;;;;;;5057981;28;20223;-76
2022/08/14 00:03:08;;;;;;;3.65;2.35;;;21.00;81.80;;;;;;5059951;28;20223;-76
2022/08/14 00:05:35;;;;;;;3.10;2.58;;;21.00;81.80;;;;;;5052848;28;20238;-76
2022/08/14 00:08:02;;;;;;;4.45;2.40;;;21.00;82.00;;;;;;5060673;28;21362;-77
2022/08/14 00:10:28;;;;;;;5.10;2.65;;;21.00;82.30;;;;;;5056245;28;20227;-77
2022/08/14 00:12:55;;;;;;;5.80;2.70;;;21.00;82.50;;;;;;5053801;28;20238;-76
2022/08/14 00:15:25;;;;;;;2.72;2.20;;;21.00;82.70;;;;;;5041906;28;20219;-77
2022/08/14 00:17:54;;;;;;;6.15;2.83;;;20.90;83.00;;;;;;5053263;28;20223;-77
2022/08/14 00:20:23;;;;;;;2.70;2.35;;;20.90;83.30;;;;;;5055328;28;20231;-76
2022/08/14 00:22:50;;;;;;;3.90;2.38;;;20.90;83.50;;;;;;5055214;28;20219;-77
2022/08/14 00:25:20;;;;;;;2.80;2.53;;;20.90;83.50;;;;;;5054407;28;20215;-77
2022/08/14 00:27:47;;;;;;;4.18;2.53;;;20.90;83.50;;;;;;5058389;28;20223;-77
2022/08/14 00:30:15;;;;;;;5.45;2.50;;;20.90;83.80;;;;;;5059018;28;20223;-76
2022/08/14 00:32:43;;;;;;;3.33;2.38;;;20.90;84.00;;;;;;5057696;28;20219;-77
2022/08/14 00:35:11;;;;;;;2.83;2.45;;;20.90;84.20;;;;;;5048734;28;20220;-77
2022/08/14 00:37:39;;;;;;;3.13;2.17;;;20.90;84.50;;;;;;5053737;28;20975;-77
2022/08/14 00:40:08;;;;;;;3.30;2.83;;;20.90;84.40;;;;;;5059939;28;20234;-77
2022/08/14 00:42:35;;;;;;;2.60;2.30;;;20.90;84.70;;;;;;5059332;28;20227;-78
2022/08/14 00:45:01;;;;;;;2.53;2.33;;;21.00;85.00;;;;;;5061259;28;20223;-77
2022/08/14 00:47:28;;;;;;;3.25;2.47;;;21.00;85.00;;;;;;5045697;28;20219;-77
2022/08/14 00:49:56;;;;;;;3.33;2.30;;;21.00;85.10;;;;;;5059211;28;20221;-77
2022/08/14 00:52:25;;;;;;;3.35;2.22;;;20.90;85.20;;;;;;5043046;28;20219;-77
2022/08/14 00:54:53;;;;;;;5.80;2.20;;;20.90;85.50;;;;;;5052848;28;20223;-77
2022/08/14 00:57:21;;;;;;;2.85;2.50;;;20.90;85.60;;;;;;5053082;28;20302;-77
2022/08/14 00:59:49;;;;;;;2.60;2.10;;;20.90;85.80;;;;;;5055680;28;21147;-77
2022/08/14 01:02:17;;;;;;;3.72;2.35;;;20.90;85.80;;;;;;5043617;28;20261;-77
2022/08/14 01:04:45;;;;;;;2.88;2.40;;;20.90;86.30;;;;;;5055697;28;20272;-77
2022/08/14 01:07:19;;;;;;;4.55;2.40;;;20.90;86.40;;;;;;5060414;28;20440;-77
2022/08/14 01:09:49;;;;;;;3.20;2.47;;;20.80;86.70;;;;;;5059545;28;20234;-77
2022/08/14 01:12:17;;;;;;;2.65;2.30;;;20.80;87.10;;;;;;5055381;28;20230;-77
2022/08/14 01:14:44;;;;;;;2.45;2.25;;;20.80;87.10;;;;;;5057709;28;20223;-77
2022/08/14 01:17:11;;;;;;;3.58;2.45;;;20.80;87.30;;;;;;5056724;28;20215;-77
2022/08/14 01:22:24;;;;;;;2.90;2.70;;;20.80;87.70;;;;;;5040192;28;20207;-77
2022/08/14 01:24:50;;;;;;;4.47;2.55;;;20.90;88.00;;;;;;5059287;28;20215;-77
2022/08/14 01:27:20;;;;;;;2.42;2.22;;;20.80;88.00;;;;;;5056316;28;20527;-78
2022/08/14 01:29:50;;;;;;;3.42;2.25;;;20.80;88.30;;;;;;5059877;28;20230;-77
2022/08/14 01:32:18;;;;;;;3.78;2.13;;;20.80;88.60;;;;;;5060866;28;20306;-78
2022/08/14 01:34:47;;;;;;;2.90;2.25;;;20.80;88.70;;;;;;5044834;28;20222;-77
2022/08/14 01:37:14;;;;;;;3.15;2.28;;;20.80;89.30;;;;;;5064795;28;20283;-78
2022/08/14 01:39:43;;;;;;;3.10;2.47;;;20.80;89.20;;;;;;5066421;28;20558;-78
2022/08/14 01:42:10;;;;;;;5.15;2.55;;;20.80;89.40;;;;;;5058871;28;20284;-78
2022/08/14 01:44:37;;;;;;;2.63;2.40;;;20.80;89.40;;;;;;5059264;28;20226;-78
2022/08/14 01:47:11;;;;;;;4.18;2.20;;;20.80;89.70;;;;;;5064293;28;20257;-78
2022/08/14 01:49:37;;;;;;;3.42;2.58;;;20.80;90.00;;;;;;5064133;28;20363;-76
2022/08/14 01:52:04;;;;;;;3.10;2.30;;;20.70;90.00;;;;;;5053986;28;20307;-77
2022/08/14 01:54:31;;;;;;;2.63;2.38;;;20.80;90.10;;;;;;5059110;28;20687;-77
2022/08/14 01:56:59;;;;;;;3.15;2.50;;;20.80;90.20;;;;;;5058821;28;20213;-77
2022/08/14 01:59:30;;;;;;;4.20;2.67;;;20.80;90.40;;;;;;5047209;28;20241;-78
2022/08/14 02:01:58;;;;;;;2.60;2.40;;;20.80;90.50;;;;;;5042817;28;20299;-79
2022/08/14 02:04:28;;;;;;;3.20;2.58;;;20.80;90.50;;;;;;5065547;28;20621;-79
2022/08/14 02:06:55;;;;;;;3.80;2.28;;;20.80;90.60;;;;;;5045739;28;20227;-78
2022/08/14 02:09:22;;;;;;;2.38;2.10;;;20.70;90.60;;;;;;5061570;28;20216;-78
2022/08/14 02:11:52;;;;;;;2.83;2.22;;;20.70;90.80;;;;;;5062786;28;20985;-77
2022/08/14 02:14:20;;;;;;;3.38;2.17;;;20.70;91.00;;;;;;5060030;28;20227;-77
2022/08/14 02:16:51;;;;;;;3.05;2.65;;;20.70;91.20;;;;;;5060392;28;20875;-77
2022/08/14 02:19:20;;;;;;;4.10;2.28;;;20.70;91.40;;;;;;5059307;28;20863;-76
2022/08/14 02:21:53;;;;;;;6.25;2.30;;;20.70;91.50;;;;;;5058589;28;20223;-77
2022/08/14 02:24:22;;;;;;;5.10;2.30;;;20.60;91.60;;;;;;5057738;28;20297;-77
2022/08/14 02:26:52;;;;;;;3.38;2.17;;;20.60;91.50;;;;;;5063836;28;20223;-77
2022/08/14 02:29:22;;;;;;;4.22;2.28;;;20.60;91.60;;;;;;5056050;28;20215;-77
2022/08/14 02:31:52;;;;;;;4.32;2.60;;;20.60;91.80;;;;;;5066374;28;20218;-78
2022/08/14 02:34:21;;;;;;;2.95;2.10;;;20.60;91.90;;;;;;5058636;28;20651;-78
2022/08/14 02:36:52;;;;;;;2.80;2.47;;;20.60;91.90;;;;;;5067637;28;20225;-78
2022/08/14 02:39:20;;;;;;;2.78;2.33;;;20.60;92.00;;;;;;5064944;28;20860;-78
2022/08/14 02:41:47;;;;;;;4.55;2.50;;;20.60;92.00;;;;;;5065089;28;20219;-78
2022/08/14 02:44:15;;;;;;;3.90;2.20;;;20.60;92.00;;;;;;5058617;28;20227;-77
2022/08/14 02:46:43;;;;;;;3.42;2.58;;;20.60;92.00;;;;;;5061393;28;20719;-77
2022/08/14 02:49:10;;;;;;;2.47;1.90;;;20.50;92.10;;;;;;5053610;28;20224;-77
2022/08/14 02:51:38;;;;;;;4.70;2.50;;;20.50;92.10;;;;;;5041032;28;20657;-77
2022/08/14 02:54:06;;;;;;;2.58;2.33;;;20.50;92.20;;;;;;5056612;28;20344;-77
2022/08/14 02:56:37;;;;;;;2.67;2.38;;;20.50;92.60;;;;;;5060493;28;20230;-77
2022/08/14 02:59:05;;;;;;;3.38;2.42;;;20.50;92.30;;;;;;5059301;28;20228;-77
2022/08/14 03:01:33;;;;;;;3.05;2.10;;;20.50;92.50;;;;;;5062384;28;20676;-76
2022/08/14 03:04:04;;;;;;;2.83;2.15;;;20.50;92.60;;;;;;5059109;28;20234;-76
2022/08/14 03:06:30;;;;;;;4.95;2.50;;;20.40;92.60;;;;;;5041801;28;20297;-77
2022/08/14 03:08:58;;;;;;;6.43;2.55;;;20.40;92.60;;;;;;5060205;28;20220;-82
2022/08/14 03:11:25;;;;;;;4.88;2.20;;;20.40;92.70;;;;;;5045632;28;20613;-82
2022/08/14 03:13:52;;;;;;;3.95;2.38;;;20.40;92.80;;;;;;5058398;28;20215;-82
2022/08/14 03:16:23;;;;;;;3.65;2.10;;;20.30;93.00;;;;;;5055970;28;20234;-83
2022/08/14 03:18:53;;;;;;;2.78;2.40;;;20.30;93.10;;;;;;5063629;28;20232;-83
2022/08/14 03:21:23;;;;;;;2.58;2.22;;;20.30;93.20;;;;;;5047360;28;20815;-83
2022/08/14 03:23:52;;;;;;;2.58;2.38;;;20.30;93.30;;;;;;5058985;28;20746;-83
2022/08/14 03:26:24;;;;;;;5.50;2.83;;;20.30;93.30;;;;;;5044714;28;20756;-83
2022/08/14 03:28:52;;;;;;;3.72;2.45;;;20.20;93.40;;;;;;5040371;28;20224;-83
2022/08/14 03:31:21;;;;;;;6.43;2.60;;;20.20;93.50;;;;;;5058004;28;20224;-83
2022/08/14 03:33:48;;;;;;;3.55;2.30;;;20.20;93.60;;;;;;5056100;28;20215;-82
2022/08/14 03:36:16;;;;;;;5.63;2.28;;;20.20;93.60;;;;;;5065837;28;20373;-82
2022/08/14 03:38:46;;;;;;;6.85;2.30;;;20.10;93.70;;;;;;5042271;28;20272;-82
2022/08/14 03:41:15;;;;;;;4.90;2.35;;;20.10;93.80;;;;;;5040975;28;20242;-82
2022/08/14 03:43:45;;;;;;;3.10;2.08;;;20.10;93.80;;;;;;5046165;28;20299;-83
2022/08/14 03:46:13;;;;;;;3.22;2.63;;;20.10;93.90;;;;;;5043653;28;20701;-82
2022/08/14 03:48:41;;;;;;;3.40;2.60;;;20.10;93.90;;;;;;5048271;28;20552;-82
2022/08/14 03:51:08;;;;;;;4.80;2.50;;;20.00;94.00;;;;;;5064664;28;20227;-82
2022/08/14 03:53:36;;;;;;;4.45;2.88;;;20.00;94.10;;;;;;5042871;28;20691;-82
2022/08/14 03:56:06;;;;;;;3.85;2.33;;;19.90;94.20;;;;;;5054976;28;20254;-81
2022/08/14 03:58:33;;;;;;;3.38;2.35;;;19.90;94.40;;;;;;5065303;28;20318;-82
2022/08/14 04:01:01;;;;;;;6.38;2.90;;;19.90;94.40;;;;;;5036858;28;20235;-81
2022/08/14 04:03:28;;;;;;;4.03;2.50;;;19.90;94.60;;;;;;5049750;28;20227;-82
2022/08/14 04:05:54;;;;;;;3.47;2.22;;;19.90;94.70;;;;;;5040489;28;20306;-82
2022/08/14 04:08:21;;;;;;;3.17;2.30;;;19.90;94.80;;;;;;5052275;28;20238;-81
2022/08/14 04:10:48;;;;;;;3.15;2.53;;;19.80;94.90;;;;;;5061224;28;20884;-82
2022/08/14 04:13:16;;;;;;;5.30;2.60;;;19.80;94.90;;;;;;5043158;28;20338;-82
2022/08/14 04:15:44;;;;;;;3.25;2.28;;;19.80;95.00;;;;;;5043585;28;20216;-81
2022/08/14 04:18:11;;;;;;;4.20;2.70;;;19.80;95.10;;;;;;5058045;28;20319;-82
2022/08/14 04:20:40;;;;;;;3.17;2.38;;;19.80;95.20;;;;;;5043644;28;20279;-82
2022/08/14 04:23:07;;;;;;;4.32;2.58;;;19.70;95.30;;;;;;5059031;28;20232;-84
2022/08/14 04:25:35;;;;;;;5.55;2.45;;;19.70;95.40;;;;;;5044793;28;20254;-83
2022/08/14 04:28:02;;;;;;;3.38;2.50;;;19.70;95.50;;;;;;5056442;28;20455;-83
2022/08/14 04:30:38;;;;;;;4.68;2.50;;;19.70;95.60;;;;;;5042302;28;20284;-83
2022/08/14 04:33:05;;;;;;;2.83;2.25;;;19.70;95.80;;;;;;5060736;28;20892;-82
2022/08/14 04:35:32;;;;;;;7.38;2.65;;;19.70;95.80;;;;;;5046899;28;20278;-81
2022/08/14 04:43:37;;;;;;;4.15;2.40;;;19.60;96.00;;;;;;5062951;28;20309;-82
2022/08/14 04:46:06;;;;;;;3.00;2.33;;;19.60;96.40;;;;;;5045507;28;20310;-83
2022/08/14 04:48:32;;;;;;;3.47;2.75;;;19.60;96.40;;;;;;5038435;28;20303;-83
2022/08/14 04:51:00;;;;;;;6.10;2.92;;;19.60;96.40;;;;;;5044718;28;20235;-83
2022/08/14 04:53:29;;;;;;;5.72;2.92;;;19.60;96.60;;;;;;5044281;28;20244;-84
2022/08/14 04:55:57;;;;;;;3.42;3.00;;;19.60;96.80;;;;;;5063990;28;20219;-81
2022/08/14 04:58:26;;;;;;;5.78;3.03;;;19.50;96.80;;;;;;5046725;28;20263;-81
2022/08/14 05:00:54;;;;;;;4.18;2.53;;;19.60;97.10;;;;;;5064868;28;20234;-83
2022/08/14 05:03:25;;;;;;;3.92;2.50;;;19.60;97.10;;;;;;5057674;28;20223;-82
2022/08/14 05:05:53;;;;;;;5.22;2.58;;;19.60;97.30;;;;;;5045385;28;21116;-87
2022/08/14 05:08:21;;;;;;;5.15;2.40;;;19.60;97.20;;;;;;5060339;28;20234;-82
2022/08/14 05:10:50;;;;;;;2.88;2.47;;;19.60;97.30;;;;;;5063857;28;20223;-82
2022/08/14 05:13:18;;;;;;;2.58;2.38;;;19.60;97.40;;;;;;5038220;28;20289;-82
2022/08/14 05:15:48;;;;;;;4.28;2.78;;;19.70;97.50;;;;;;5051564;28;20223;-83
2022/08/14 05:18:20;;;;;;;3.33;2.63;;;19.70;97.70;;;;;;5063317;28;20231;-82
2022/08/14 05:20:51;;;;;;;9.43;3.03;;;19.80;97.80;;;;;;5045596;28;20216;-83
2022/08/14 05:23:21;;;;;;;5.82;2.72;;;19.80;97.90;;;;;;5043574;28;20235;-85
2022/08/14 05:25:50;;;;;;;3.15;2.28;;;19.90;97.90;;;;;;5044555;28;20208;-84
2022/08/14 05:28:20;;;;;;;5.38;2.78;;;19.90;98.00;;;;;;5058289;28;20230;-83
2022/08/14 05:30:48;;;;;;;4.95;2.40;;;19.90;98.10;;;;;;5067693;28;20254;-82
2022/08/14 05:33:19;;;;;;;3.13;2.30;;;20.00;98.20;;;;;;5062496;28;20226;-83
2022/08/14 05:35:49;;;;;;;4.28;2.45;;;20.00;98.10;;;;;;5064395;28;20308;-83
2022/08/14 05:38:18;;;;;;;4.43;2.20;;;20.10;98.20;;;;;;5063912;28;20356;-83
2022/08/14 05:40:46;;;;;;;4.88;2.72;;;20.10;98.20;;;;;;5043870;28;20227;-83
2022/08/14 05:43:14;;;;;;;3.58;2.30;;;20.20;98.20;;;;;;5066166;28;20250;-83
2022/08/14 05:45:41;;;;;;;4.38;2.20;;;20.30;98.30;;;;;;5063838;28;20318;-82
2022/08/14 05:48:14;;;;;;;4.15;2.15;;;20.40;98.30;;;;;;5067320;28;20227;-83
2022/08/14 05:50:41;;;;;;;5.28;2.33;;;20.40;98.30;;;;;;5066561;28;20278;-83
2022/08/14 05:53:09;;;;;;;4.93;2.45;;;20.50;98.20;;;;;;5049472;28;20259;-83
2022/08/14 05:55:36;;;;;;;3.67;2.45;;;20.70;98.20;;;;;;5052261;28;20310;-83
2022/08/14 05:58:06;;;;;;;5.55;2.15;;;20.80;98.10;;;;;;5054685;28;20230;-84
2022/08/14 06:00:35;;;;;;;2.72;2.08;;;20.90;98.10;;;;;;5069159;28;20228;-83
2022/08/14 06:03:03;;;;;;;5.53;2.50;;;21.00;98.00;;;;;;5069829;28;20215;-83
2022/08/14 06:05:30;;;;;;;4.60;2.47;;;21.10;97.90;;;;;;5051508;28;20223;-84
2022/08/14 06:07:57;;;;;;;3.25;2.20;;;21.20;97.80;;;;;;5064980;28;20334;-84
2022/08/14 06:10:26;;;;;;;6.75;2.20;;;21.30;97.80;;;;;;5066873;28;20266;-83
2022/08/14 06:12:56;;;;;;;5.18;2.17;;;21.40;97.60;;;;;;5069071;28;20231;-83
2022/08/14 06:15:24;;;;;;;3.75;2.20;;;21.50;97.50;;;;;;5049756;28;20272;-83
2022/08/14 06:17:57;;;;;;;3.72;2.30;;;21.60;97.40;;;;;;5048764;28;20215;-84
2022/08/14 06:20:24;;;;;;;4.45;2.47;;;21.70;97.30;;;;;;5064496;28;20235;-83
2022/08/14 06:22:52;;;;;;;3.17;2.30;;;21.80;97.10;;;;;;5054586;28;20231;-81
2022/08/14 06:25:19;;;;;;;7.57;2.38;;;21.90;96.80;;;;;;5053124;28;20238;-81
2022/08/14 06:27:49;;;;;;;4.85;2.20;;;22.00;96.60;;;;;;5070379;28;20232;-82
2022/08/14 06:30:21;;;;;;;3.75;2.33;;;22.10;96.70;;;;;;5032030;28;20897;-81
2022/08/14 06:32:48;;;;;;;3.33;2.03;;;22.10;96.50;;;;;;5049114;28;20223;-82
2022/08/14 06:35:19;;;;;;;4.85;2.40;;;22.20;96.50;;;;;;5058619;28;21099;-81
2022/08/14 06:37:47;;;;;;;4.47;2.20;;;22.20;96.40;;;;;;5069686;28;20738;-81
2022/08/14 06:40:18;;;;;;;3.63;2.40;;;22.30;96.40;;;;;;5045443;28;20266;-82
2022/08/14 06:42:45;;;;;;;5.90;2.10;;;22.30;96.30;;;;;;5071018;28;20403;-83
2022/08/14 06:45:13;;;;;;;5.50;2.55;;;22.30;96.30;;;;;;5053024;28;20225;-82
2022/08/14 06:47:43;;;;;;;3.90;2.15;;;22.40;96.20;;;;;;5066028;28;20302;-83
2022/08/14 06:50:13;;;;;;;3.65;2.33;;;22.40;96.20;;;;;;5069737;28;20869;-82
2022/08/14 06:52:44;;;;;;;3.75;2.17;;;22.50;96.20;;;;;;5053022;28;20215;-82
2022/08/14 06:55:16;;;;;;;4.97;2.33;;;22.60;96.30;;;;;;5051828;28;20287;-82
2022/08/14 06:57:44;;;;;;;3.30;2.15;;;22.60;96.20;;;;;;5067003;28;20227;-82
2022/08/14 07:00:14;;;;;;;7.47;2.50;;;22.70;96.10;;;;;;5064570;28;20250;-83
2022/08/14 07:08:12;;;;;;;4.72;2.20;;;22.90;96.00;;;;;;5061525;28;20227;-81
2022/08/14 07:10:41;;;;;;;4.25;2.33;;;23.10;95.70;;;;;;5059586;28;20215;-82
2022/08/14 07:13:08;;;;;;;5.90;2.25;;;23.20;95.40;;;;;;5043621;28;20953;-82
2022/08/14 07:15:36;;;;;;;6.20;2.50;;;23.30;95.40;;;;;;5046605;28;20219;-81
2022/08/14 07:18:04;;;;;;;7.00;2.40;;;23.40;95.30;;;;;;5049577;28;20227;-79
2022/08/14 07:20:34;;;;;;;4.22;2.35;;;23.60;95.40;;;;;;5067672;28;20314;-82
2022/08/14 07:23:08;;;;;;;5.10;2.42;;;23.70;95.10;;;;;;5072526;28;20219;-81
2022/08/14 07:25:36;;;;;;;5.95;2.95;;;23.90;95.10;;;;;;5068762;28;20227;-81
2022/08/14 07:28:10;;;;;;;6.57;2.60;;;24.10;95.00;;;;;;5068305;28;20254;-83
2022/08/14 07:30:39;;;;;;;3.78;2.20;;;24.40;94.70;;;;;;5067478;28;20289;-82
2022/08/14 07:33:06;;;;;;;4.50;2.53;;;24.70;94.60;;;;;;5045443;28;20227;-84
2022/08/14 07:35:34;;;;;;;6.05;2.33;;;25.10;94.20;;;;;;5046513;28;20310;-83
2022/08/14 07:38:01;;;;;;;3.08;2.40;;;25.60;93.90;;;;;;5062607;28;20216;-84
2022/08/14 07:40:30;;;;;;;2.80;2.20;;;26.10;93.50;;;;;;5058485;28;20257;-86
2022/08/14 07:42:58;;;;;;;4.82;2.20;;;26.70;93.00;;;;;;5036974;28;20215;-85
2022/08/14 07:45:24;;;;;;;4.78;2.40;;;27.40;92.30;;;;;;5042301;28;20467;-85
2022/08/14 07:47:55;;;;;;;2.80;2.00;;;28.00;91.50;;;;;;5048165;28;20235;-85
2022/08/14 07:50:21;;;;;;;3.75;2.20;;;28.70;90.30;;;;;;5057851;28;20322;-85
2022/08/14 07:52:48;;;;;;;3.65;2.20;;;29.30;88.40;;;;;;5059899;28;20253;-83
2022/08/14 07:55:17;;;;;;;3.55;2.10;;;30.00;86.90;;;;;;5043741;28;20218;-83
2022/08/14 07:57:45;;;;;;;4.53;2.30;;;30.50;84.30;;;;;;5064606;28;20319;-83
2022/08/14 08:00:16;;;;;;;3.92;2.50;;;31.10;81.40;;;;;;5062858;28;20252;-83
2022/08/14 08:02:48;;;;;;;4.03;2.13;;;31.70;78.20;;;;;;5058886;28;20223;-83
2022/08/14 08:05:19;;;;;;;4.40;2.22;;;32.10;76.40;;;;;;5052961;28;20333;-83
2022/08/14 08:07:46;;;;;;;3.28;2.47;;;32.50;74.40;;;;;;5061168;28;20758;-83
2022/08/14 08:10:33;;;;;;;3.95;2.25;;;32.60;74.00;;;;;;5060353;28;20231;-83
2022/08/14 08:13:02;;;;;;;6.03;2.13;;;32.90;72.90;;;;;;5024439;28;20245;-83
2022/08/14 08:15:33;;;;;;;3.03;2.15;;;33.20;71.80;;;;;;5063499;28;20323;-83
2022/08/14 08:18:03;;;;;;;6.97;2.60;;;33.50;70.70;;;;;;5066442;28;20226;-83
2022/08/14 08:20:35;;;;;;;4.03;2.40;;;33.80;69.70;;;;;;5043326;28;20227;-83
2022/08/14 08:23:03;;;;;;;3.35;2.65;;;34.10;68.30;;;;;;5062175;28;20235;-82
2022/08/14 08:25:32;;;;;;;5.65;2.72;;;34.50;66.90;;;;;;5066078;28;20229;-83
2022/08/14 08:28:03;;;;;;;8.55;2.38;;;34.80;65.50;;;;;;5064045;28;20223;-83
2022/08/14 08:30:33;;;;;;;4.47;2.33;;;35.10;63.70;;;;;;5067156;28;20261;-83
2022/08/14 08:33:05;;;;;;;5.38;2.50;;;35.30;62.70;;;;;;5061642;28;21917;-83
2022/08/14 08:35:34;;;;;;;4.20;2.60;;;35.50;62.50;;;;;;5064303;28;20246;-83
2022/08/14 08:38:04;;;;;;;3.50;2.45;;;35.60;61.60;;;;;;5060680;28;20614;-84
2022/08/14 08:40:35;;;;;;;4.47;2.50;;;35.80;60.70;;;;;;5042804;28;20695;-83
2022/08/14 08:43:06;;;;;;;8.50;2.40;;;35.80;60.20;;;;;;5044815;28;20216;-83
2022/08/14 08:45:35;;;;;;;4.97;2.45;;;35.80;60.20;;;;;;5063765;28;20243;-83
2022/08/14 08:48:03;;;;;;;3.20;2.30;;;35.70;59.60;;;;;;5057780;28;20699;-83
2022/08/14 08:50:34;;;;;;;3.78;2.72;;;35.70;59.90;;;;;;5036707;28;20235;-83
2022/08/14 08:53:02;;;;;;;3.50;2.35;;;35.70;59.40;;;;;;5036964;28;20315;-83
2022/08/14 08:55:32;;;;;;;4.13;2.45;;;35.90;59.30;;;;;;5061167;28;20710;-83
2022/08/14 08:58:01;;;;;;;2.80;2.58;;;36.10;58.90;;;;;;5056698;28;20914;-83
2022/08/14 09:00:31;;;;;;;3.45;2.60;;;36.20;58.30;;;;;;5036631;28;20295;-83
2022/08/14 09:03:02;;;;;;;4.32;2.63;;;36.40;58.00;;;;;;5057424;28;20227;-83
2022/08/14 09:05:30;;;;;;;3.17;2.53;;;36.60;57.00;;;;;;5053856;28;20223;-83
2022/08/14 09:08:18;;;;;;;5.30;2.78;;;36.80;57.30;;;;;;5050755;28;20256;-83
2022/08/14 09:10:46;;;;;;;3.38;2.58;;;36.90;57.20;;;;;;5054875;28;20320;-81
2022/08/14 09:13:24;;;;;;;4.90;2.70;;;36.90;56.20;;;;;;5058615;28;20345;-81
2022/08/14 09:15:53;;;;;;;5.85;2.85;;;36.80;55.70;;;;;;5061624;28;20225;-81
2022/08/14 09:18:22;;;;;;;3.53;2.30;;;36.60;55.70;;;;;;5039027;28;20581;-81
2022/08/14 09:20:50;;;;;;;3.47;2.40;;;36.40;55.80;;;;;;5057017;28;20233;-81
2022/08/14 09:23:19;;;;;;;4.80;2.80;;;36.10;56.40;;;;;;5057222;28;20329;-81
2022/08/14 09:25:48;;;;;;;3.65;2.45;;;35.80;56.30;;;;;;5058973;28;20226;-81
2022/08/14 09:28:19;;;;;;;4.40;3.00;;;35.50;56.90;;;;;;5037128;28;20227;-81
2022/08/14 09:30:49;;;;;;;5.40;3.58;;;35.40;57.30;;;;;;5056941;28;20227;-81
2022/08/14 09:33:41;;;;;;;3.85;3.20;;;35.20;56.80;;;;;;5035979;28;20233;-82
2022/08/14 09:36:26;;;;;;;4.68;3.45;;;35.10;56.90;;;;;;5046417;28;20230;-81
2022/08/14 09:39:08;;;;;;;3.80;3.45;;;35.10;56.70;;;;;;5040117;28;20754;-82
2022/08/14 09:41:46;;;;;;;4.95;3.20;;;35.10;56.50;;;;;;5055178;28;20232;-81
2022/08/14 09:44:28;;;;;;;3.50;3.20;;;35.20;56.20;;;;;;5053973;28;20230;-81
2022/08/14 09:47:06;;;;;;;;;;;;;;;;;;;;;
2022/08/14 09:49:34;;;;;;;5.10;3.83;;;35.50;57.30;;;;;;5043136;28;20704;-81
2022/08/14 09:52:06;;;;;;;3.97;3.20;;;35.80;56.80;;;;;;5044616;28;20846;-81
2022/08/14 09:54:42;;;;;;;3.60;3.28;;;36.10;56.10;;;;;;5053475;28;20223;-81
2022/08/14 09:57:09;;;;;;;5.95;3.35;;;36.40;55.50;;;;;;5061081;28;20231;-82
2022/08/14 09:59:45;;;;;;;4.38;3.38;;;36.60;55.40;;;;;;5065803;28;20227;-83
2022/08/14 10:02:23;;;;;;;3.90;3.53;;;36.80;54.80;;;;;;5027586;28;20228;-83
2022/08/14 10:05:00;;;;;;;6.43;3.40;;;36.90;54.10;;;;;;5057560;28;20229;-83
2022/08/14 10:07:31;;;;;;;4.90;4.00;;;36.80;53.50;;;;;;5062623;28;20219;-83
2022/08/14 10:10:02;;;;;;;5.43;3.85;;;36.70;53.00;;;;;;5051210;28;20223;-83
2022/08/14 10:12:47;;;;;;;5.55;3.60;;;36.70;53.30;;;;;;5058160;28;20310;-83
2022/08/14 10:15:19;;;;;;;5.20;3.50;;;36.40;53.70;;;;;;5046421;28;20270;-83
2022/08/14 10:17:47;;;;;;;5.65;3.78;;;36.30;53.90;;;;;;5065896;28;20220;-83
2022/08/14 10:20:15;;;;;;;4.25;3.65;;;36.30;54.10;;;;;;5047334;28;20232;-83
2022/08/14 10:22:42;;;;;;;3.90;3.60;;;36.20;54.20;;;;;;5064124;28;20942;-81
2022/08/14 10:25:13;;;;;;;3.42;3.13;;;36.10;54.40;;;;;;5054934;28;20223;-84
2022/08/14 10:27:40;;;;;;;4.60;3.17;;;36.00;54.20;;;;;;5050500;28;20241;-83
2022/08/14 10:30:14;;;;;;;4.72;3.58;;;35.90;54.40;;;;;;5043723;28;20220;-83
2022/08/14 10:32:44;;;;;;;5.50;3.67;;;35.60;53.80;;;;;;5054671;28;20612;-83
2022/08/14 10:35:17;;;;;;;5.22;3.38;;;35.60;54.10;;;;;;5044698;28;20227;-83
2022/08/14 10:37:51;;;;;;;4.28;3.42;;;35.40;54.30;;;;;;5062524;28;20223;-83
2022/08/14 10:40:31;;;;;;;7.25;3.45;;;35.30;54.50;;;;;;5052469;28;20225;-83
2022/08/14 10:42:58;;;;;;;4.88;3.72;;;35.10;54.30;;;;;;5042315;28;20869;-84
2022/08/14 10:45:30;;;;;;;4.97;3.58;;;35.10;54.90;;;;;;5049668;28;20818;-83
2022/08/14 10:47:57;;;;;;;3.80;3.50;;;34.90;54.90;;;;;;5041651;28;20743;-83
2022/08/14 10:50:32;;;;;;;4.82;3.38;;;34.80;55.00;;;;;;5041713;28;20292;-83
2022/08/14 10:53:04;;;;;;;8.20;3.80;;;34.80;54.70;;;;;;5039086;28;20292;-83
2022/08/14 10:55:38;;;;;;;7.80;3.67;;;34.80;54.90;;;;;;5044335;28;20227;-84
2022/08/14 10:58:10;;;;;;;6.63;3.45;;;34.80;55.30;;;;;;5056237;28;20231;-83
2022/08/14 11:00:39;;;;;;;7.63;3.75;;;34.60;55.60;;;;;;5040651;28;20384;-83
2022/08/14 11:03:12;;;;;;;5.53;3.15;;;34.60;55.80;;;;;;5041386;28;20232;-83
2022/08/14 11:05:41;;;;;;;6.30;3.70;;;34.40;55.90;;;;;;5057047;28;20506;-83
2022/08/14 11:08:09;;;;;;;4.88;3.67;;;34.20;56.30;;;;;;5064240;28;20222;-83
2022/08/14 11:10:43;;;;;;;6.03;3.70;;;34.00;56.70;;;;;;5065347;28;20307;-83
2022/08/14 11:13:10;;;;;;;3.78;3.38;;;33.80;57.20;;;;;;5037723;28;20311;-83
2022/08/14 11:15:37;;;;;;;5.93;3.50;;;33.70;57.00;;;;;;5045416;28;20729;-83
2022/08/14 11:18:04;;;;;;;6.30;3.42;;;33.40;57.00;;;;;;5046125;28;20216;-83
2022/08/14 11:20:32;;;;;;;7.82;3.15;;;33.20;57.50;;;;;;5064315;28;20281;-83
2022/08/14 11:23:01;;;;;;;4.18;3.67;;;33.00;58.10;;;;;;5061647;28;20270;-83
2022/08/14 11:25:30;;;;;;;4.93;3.90;;;32.90;58.50;;;;;;5058548;28;20227;-82
2022/08/14 11:27:59;;;;;;;6.57;3.55;;;32.70;58.70;;;;;;5060661;28;20207;-83
2022/08/14 11:30:31;;;;;;;4.18;3.78;;;32.60;58.50;;;;;;5043746;28;20227;-83
2022/08/14 11:32:58;;;;;;;6.22;3.95;;;32.60;58.50;;;;;;5057442;28;20740;-83
2022/08/14 11:35:28;;;;;;;8.18;3.55;;;32.50;58.50;;;;;;5042719;28;20315;-83
2022/08/14 11:37:57;;;;;;;7.13;3.80;;;32.50;58.70;;;;;;5049078;28;20228;-83
2022/08/14 11:40:27;;;;;;;4.70;4.00;;;32.50;59.10;;;;;;5060545;28;20236;-83
2022/08/14 11:42:58;;;;;;;4.57;4.15;;;32.50;59.20;;;;;;5044716;28;20750;-83
2022/08/14 11:45:28;;;;;;;5.32;3.97;;;32.50;59.30;;;;;;5063446;28;20231;-83
2022/08/14 11:47:56;;;;;;;5.60;4.32;;;32.50;59.20;;;;;;5062184;28;20337;-83
2022/08/14 11:50:27;;;;;;;6.32;4.40;;;32.50;59.30;;;;;;5062660;28;20617;-83
2022/08/14 11:52:56;;;;;;;9.30;4.18;;;32.60;59.00;;;;;;5060828;28;20315;-84
2022/08/14 11:55:26;;;;;;;5.07;4.05;;;32.70;58.90;;;;;;5063054;28;20219;-84
2022/08/14 11:58:01;;;;;;;4.40;4.00;;;32.70;58.60;;;;;;5049764;28;20227;-83
2022/08/14 12:00:32;;;;;;;10.07;4.32;;;32.90;58.50;;;;;;5065932;28;20219;-83
2022/08/14 12:03:00;;;;;;;6.10;4.15;;;33.10;57.90;;;;;;5063846;28;20761;-83
2022/08/14 12:05:32;;;;;;;5.78;4.35;;;33.30;58.00;;;;;;5049300;28;20233;-83
2022/08/14 12:07:59;;;;;;;5.40;4.35;;;33.50;58.10;;;;;;5063013;28;20254;-83
2022/08/14 12:10:28;;;;;;;5.63;4.45;;;33.70;57.90;;;;;;5061211;28;20231;-83
2022/08/14 12:12:55;;;;;;;5.40;4.88;;;34.00;57.10;;;;;;5057755;28;20945;-84
2022/08/14 12:15:34;;;;;;;5.60;4.90;;;34.40;56.90;;;;;;5044870;28;20315;-83
2022/08/14 12:18:02;;;;;;;5.55;4.80;;;34.60;55.80;;;;;;5060646;28;20219;-84
2022/08/14 12:20:32;;;;;;;6.13;4.95;;;34.90;55.50;;;;;;5060885;28;20717;-83
2022/08/14 12:23:01;;;;;;;7.28;5.05;;;35.10;55.20;;;;;;5054477;28;20694;-83
2022/08/14 12:25:29;;;;;;;5.10;4.60;;;35.20;54.80;;;;;;5042121;28;20307;-85
2022/08/14 12:27:59;;;;;;;6.78;4.85;;;35.40;55.00;;;;;;5057298;28;20224;-82
2022/08/14 12:30:31;;;;;;;6.43;5.07;;;35.60;54.80;;;;;;5043428;28;20227;-80
2022/08/14 12:32:58;;;;;;;6.13;4.93;;;35.80;54.00;;;;;;5061918;28;20388;-82
2022/08/14 12:35:36;;;;;;;6.00;4.60;;;35.90;53.70;;;;;;5055090;28;20246;-82
2022/08/14 12:38:03;;;;;;;5.28;4.78;;;36.00;53.90;;;;;;5061146;28;20801;-82
2022/08/14 12:40:31;;;;;;;6.13;4.97;;;36.00;53.50;;;;;;5063565;28;20227;-82
2022/08/14 12:43:00;;;;;;;5.32;4.82;;;36.10;53.50;;;;;;5045004;28;20284;-82
2022/08/14 12:45:33;;;;;;;5.22;4.50;;;36.10;53.20;;;;;;5055494;28;20266;-82
2022/08/14 12:48:01;;;;;;;5.28;4.78;;;36.20;53.00;;;;;;5031045;28;20261;-82
2022/08/14 12:50:39;;;;;;;4.80;4.35;;;36.30;52.80;;;;;;5058049;28;20709;-82
2022/08/14 12:53:08;;;;;;;5.60;5.10;;;36.30;52.60;;;;;;5058369;28;20223;-82
2022/08/14 12:55:35;;;;;;;5.68;5.18;;;36.30;52.00;;;;;;5053520;28;20326;-82
2022/08/14 12:58:05;;;;;;;6.40;4.95;;;36.30;51.90;;;;;;5060506;28;20219;-82
2022/08/14 13:00:35;;;;;;;5.13;4.60;;;36.20;51.90;;;;;;5059802;28;20253;-82
2022/08/14 13:03:03;;;;;;;5.22;4.72;;;36.20;52.90;;;;;;5055116;28;20220;-82
2022/08/14 13:05:33;;;;;;;6.05;4.97;;;36.10;52.20;;;;;;5044964;28;20528;-82
2022/08/14 13:08:04;;;;;;;7.10;6.00;;;36.10;52.10;;;;;;5043418;28;20718;-81
2022/08/14 13:10:32;;;;;;;6.43;4.90;;;36.00;52.30;;;;;;5056330;28;20242;-82
2022/08/14 13:12:59;;;;;;;4.80;4.40;;;36.00;52.20;;;;;;5060014;28;20815;-82